Time;durP1;ratioP1;P1;durP2;ratioP2;P2;SDS_P1;SDS_P2;PMS_P1;PMS_P2;Temp;Humidity;BMP_temperature;BMP_pressure;BME280_temperature;BME280_humidity;BME280_pressure;Samples;Min_cycle;Max_cycle;Signal;HPM_P1;HPM_P2
2023/12/27 00:00:33;;;;;;;12.00;5.73;;;;;;;9.70;72.86;63958.66;5072417;28;20193;-53
2023/12/27 00:02:58;;;;;;;9.97;4.57;;;;;;;9.55;72.91;63942.25;5054621;28;20295;-58
2023/12/27 00:05:24;;;;;;;8.60;4.60;;;;;;;9.50;73.21;63938.75;5072100;28;20276;-53
2023/12/27 00:07:49;;;;;;;8.70;4.40;;;;;;;9.39;73.90;63927.28;5054405;28;20291;-53
2023/12/27 00:10:15;;;;;;;8.97;4.27;;;;;;;9.37;74.15;63922.56;5072255;28;20573;-55
2023/12/27 00:12:41;;;;;;;9.67;4.90;;;;;;;9.27;74.90;63914.69;5072114;28;20212;-52
2023/12/27 00:15:07;;;;;;;9.60;4.70;;;;;;;9.26;74.52;63910.53;5054379;28;20200;-54
2023/12/27 00:17:32;;;;;;;7.83;3.87;;;;;;;9.25;75.25;63909.47;5072590;28;20209;-55
2023/12/27 00:19:58;;;;;;;14.97;5.37;;;;;;;9.09;76.47;63895.00;5072118;28;20602;-56
2023/12/27 00:22:24;;;;;;;12.00;5.43;;;;;;;8.91;77.56;63875.34;5072177;28;20205;-51
2023/12/27 00:24:49;;;;;;;11.37;4.80;;;;;;;8.85;78.38;63868.22;5071961;28;20280;-58
2023/12/27 00:27:15;;;;;;;9.83;4.70;;;;;;;8.86;77.55;63869.88;5071888;28;20216;-53
2023/12/27 00:29:40;;;;;;;10.17;4.47;;;;;;;8.84;78.34;63867.16;5072129;28;20710;-54
2023/12/27 00:32:11;;;;;;;12.03;5.47;;;;;;;8.39;81.20;63819.09;5072197;28;20226;-53
2023/12/27 00:34:43;;;;;;;12.07;5.13;;;;;;;8.62;80.62;63841.16;5071962;28;20735;-53
2023/12/27 00:37:09;;;;;;;10.93;5.43;;;;;;;8.58;81.53;63838.75;5072023;28;20239;-53
2023/12/27 00:39:35;;;;;;;9.23;5.70;;;;;;;8.49;80.96;63826.94;5071777;28;20185;-53
2023/12/27 00:42:00;;;;;;;7.47;4.90;;;;;;;8.52;81.91;63832.19;5071689;28;20283;-54
2023/12/27 00:44:26;;;;;;;8.60;5.03;;;;;;;8.55;81.50;63832.94;5071961;28;20634;-53
2023/12/27 00:46:52;;;;;;;11.63;6.40;;;;;;;8.57;82.12;63838.19;5071718;28;20219;-57
2023/12/27 00:49:17;;;;;;;12.83;7.23;;;;;;;8.57;80.73;63835.13;5071665;28;20265;-55
2023/12/27 00:51:44;;;;;;;12.73;6.60;;;;;;;8.53;81.08;63833.28;5071545;28;20227;-56
2023/12/27 00:54:09;;;;;;;13.10;6.70;;;;;;;8.33;81.95;63811.97;5071894;28;20683;-54
2023/12/27 00:56:36;;;;;;;15.47;5.70;;;;;;;8.30;82.24;63808.72;5053508;28;20203;-55
2023/12/27 00:59:01;;;;;;;10.40;6.37;;;;;;;8.13;84.06;63788.16;5071606;28;20193;-54
2023/12/27 01:01:30;;;;;;;10.20;5.87;;;;;;;8.06;83.63;63780.50;5071641;28;20725;-54
2023/12/27 01:03:55;;;;;;;14.53;7.13;;;;;;;8.03;85.72;63779.22;5071438;28;20275;-53
2023/12/27 01:06:21;;;;;;;11.73;6.00;;;;;;;8.21;83.99;63796.91;5071445;28;20180;-58
2023/12/27 01:09:07;;;;;;;12.60;6.10;;;;;;;8.06;84.60;63779.97;5071184;28;20220;-53
2023/12/27 01:11:33;;;;;;;12.83;6.30;;;;;;;8.03;84.67;63779.22;5071180;28;20188;-52
2023/12/27 01:13:58;;;;;;;11.57;5.40;;;;;;;7.96;85.19;63772.09;5053409;28;20199;-53
2023/12/27 01:16:24;;;;;;;11.07;5.63;;;;;;;8.03;84.68;63781.72;5070272;28;20181;-52
2023/12/27 01:18:50;;;;;;;11.60;6.10;;;;;;;7.93;85.92;63765.78;5071627;28;20196;-53
2023/12/27 01:21:15;;;;;;;12.90;5.70;;;;;;;7.75;87.38;63748.66;5071124;28;20199;-55
2023/12/27 01:23:41;;;;;;;8.90;5.30;;;;;;;7.68;87.78;63741.53;5053309;28;20258;-53
2023/12/27 01:26:07;;;;;;;11.17;5.50;;;;;;;7.81;88.11;63752.69;5071328;28;20717;-53
2023/12/27 01:28:32;;;;;;;11.20;6.03;;;;;;;7.83;88.28;63754.88;5071109;28;20209;-53
2023/12/27 01:30:58;;;;;;;10.73;5.40;;;;;;;7.79;87.32;63748.53;5071174;28;20607;-52
2023/12/27 01:33:23;;;;;;;15.60;6.10;;;;;;;7.69;88.22;63740.13;5071158;28;20777;-53
2023/12/27 01:35:48;;;;;;;10.17;5.97;;;;;;;7.71;88.42;63742.31;5071000;28;20578;-51
2023/12/27 01:38:14;;;;;;;11.17;5.83;;;;;;;7.81;88.19;63753.22;5070857;28;20204;-53
2023/12/27 01:40:48;;;;;;;8.37;5.03;;;;;;;7.94;87.12;63769.91;5052972;28;20671;-55
2023/12/27 01:43:13;;;;;;;11.60;5.63;;;;;;;7.94;86.27;63769.91;5071389;28;20208;-53
2023/12/27 01:45:39;;;;;;;7.87;4.77;;;;;;;7.90;86.43;63768.06;5070338;28;20199;-52
2023/12/27 01:48:05;;;;;;;10.30;5.93;;;;;;;7.88;87.51;63760.34;5071007;28;20488;-52
2023/12/27 01:50:30;;;;;;;10.27;6.23;;;;;;;7.84;88.94;63758.47;5071163;28;20188;-53
2023/12/27 01:52:56;;;;;;;11.50;5.00;;;;;;;7.85;88.06;63759.56;5070707;28;20243;-53
2023/12/27 01:55:21;;;;;;;10.17;4.60;;;;;;;7.85;89.09;63760.09;5070846;28;20279;-56
2023/12/27 01:57:47;;;;;;;8.93;5.67;;;;;;;7.91;90.20;63766.66;5070528;28;20200;-55
2023/12/27 02:00:13;;;;;;;15.97;5.77;;;;;;;7.98;89.24;63774.28;5070615;28;20193;-54
2023/12/27 02:02:41;;;;;;;12.93;6.33;;;;;;;7.99;89.23;63775.38;5070860;28;20226;-55
2023/12/27 02:05:07;;;;;;;13.63;5.23;;;;;;;7.95;90.28;63771.03;5070594;28;20200;-54
2023/12/27 02:07:34;;;;;;;10.87;5.37;;;;;;;8.09;89.17;63786.31;5052572;28;20295;-54
2023/12/27 02:10:00;;;;;;;10.17;5.93;;;;;;;8.15;88.68;63792.31;5070537;28;20188;-55
2023/12/27 02:12:28;;;;;;;9.30;5.33;;;;;;;8.08;88.63;63784.69;5070592;28;20740;-54
2023/12/27 02:14:53;;;;;;;9.07;5.67;;;;;;;8.15;89.68;63790.34;5070352;28;20207;-54
2023/12/27 02:17:21;;;;;;;15.83;5.63;;;;;;;8.03;91.37;63784.78;5070501;28;20196;-54
2023/12/27 02:19:47;;;;;;;7.80;4.70;;;;;;;8.21;90.56;63799.41;5070289;28;20193;-52
2023/12/27 02:22:19;;;;;;;10.03;4.60;;;;;;;8.11;93.37;63785.44;5070201;28;20209;-54
2023/12/27 02:24:48;;;;;;;11.33;4.80;;;;;;;8.14;92.97;63791.22;5052413;28;20195;-55
2023/12/27 02:27:13;;;;;;;9.63;5.60;;;;;;;8.30;92.35;63806.75;5071341;28;20208;-55
2023/12/27 02:29:39;;;;;;;6.93;4.80;;;;;;;8.27;93.85;63805.97;5073839;28;20258;-55
2023/12/27 02:32:05;;;;;;;7.80;4.60;;;;;;;8.32;91.86;63810.91;5073873;28;20197;-54
2023/12/27 02:34:31;;;;;;;9.97;5.23;;;;;;;8.27;94.14;63803.47;5073929;28;20193;-54
2023/12/27 02:36:57;;;;;;;15.63;5.60;;;;;;;8.30;93.85;63808.72;5055660;28;20693;-54
2023/12/27 02:39:22;;;;;;;8.93;5.17;;;;;;;8.37;94.04;63816.34;5055850;28;20200;-55
2023/12/27 02:41:48;;;;;;;7.00;4.33;;;;;;;8.48;95.18;63825.31;5073744;28;20366;-54
2023/12/27 02:44:13;;;;;;;12.17;5.87;;;;;;;8.50;95.39;63830.00;5073660;28;20242;-55
2023/12/27 02:46:39;;;;;;;10.47;4.80;;;;;;;8.58;95.08;63836.78;5073637;28;20234;-56
2023/12/27 02:49:05;;;;;;;12.57;6.67;;;;;;;8.63;96.14;63844.19;5073458;28;20277;-55
2023/12/27 02:51:30;;;;;;;10.03;5.30;;;;;;;8.60;90.31;63840.94;5073586;28;20208;-56
2023/12/27 02:53:56;;;;;;;11.27;5.87;;;;;;;8.35;88.38;63812.22;5055625;28;20758;-53
2023/12/27 02:56:21;;;;;;;13.67;6.43;;;;;;;8.20;90.86;63798.31;5073342;28;20246;-53
2023/12/27 02:58:47;;;;;;;9.33;5.90;;;;;;;8.14;90.44;63789.25;5073556;28;20193;-53
2023/12/27 03:01:12;;;;;;;12.70;5.83;;;;;;;8.00;95.19;63776.47;5073534;28;20211;-53
2023/12/27 03:03:38;;;;;;;9.17;5.40;;;;;;;8.06;95.94;63780.50;5073492;28;20243;-53
2023/12/27 03:06:05;;;;;;;8.80;4.10;;;;;;;8.11;99.50;63787.94;5073282;28;20262;-53
2023/12/27 03:08:31;;;;;;;8.57;4.53;;;;;;;8.11;100.00;63787.94;5055213;28;20216;-57
2023/12/27 03:10:57;;;;;;;9.90;4.77;;;;;;;7.99;100.00;63774.84;5073231;28;20251;-52
2023/12/27 03:13:22;;;;;;;9.20;4.27;;;;;;;8.08;100.00;63785.22;5073753;28;20573;-54
2023/12/27 03:15:48;;;;;;;8.70;4.57;;;;;;;8.14;100.00;63791.75;5055377;28;20208;-55
2023/12/27 03:18:14;;;;;;;9.17;4.50;;;;;;;8.32;100.00;63810.91;5073420;28;20209;-55
2023/12/27 03:20:39;;;;;;;8.03;3.77;;;;;;;8.30;100.00;63808.72;5073340;28;20197;-54
2023/12/27 03:23:05;;;;;;;9.57;4.90;;;;;;;8.42;100.00;63822.34;5072884;28;20702;-57
2023/12/27 03:25:31;;;;;;;10.23;3.93;;;;;;;8.55;100.00;63835.47;5073229;28;20239;-56
2023/12/27 03:27:56;;;;;;;9.53;4.10;;;;;;;8.54;100.00;63831.88;5038334;28;20216;-59
2023/12/27 03:30:22;;;;;;;5.70;3.47;;;;;;;8.61;100.00;63840.06;5054894;28;20685;-54
2023/12/27 03:32:47;;;;;;;10.13;3.57;;;;;;;8.75;100.00;63855.34;5073248;28;20208;-55
2023/12/27 03:35:13;;;;;;;10.53;4.20;;;;;;;8.76;100.00;63858.41;5073015;28;20189;-53
2023/12/27 03:37:39;;;;;;;9.80;4.20;;;;;;;8.75;100.00;63857.31;5072708;28;20204;-53
2023/12/27 03:40:06;;;;;;;8.90;3.67;;;;;;;8.92;100.00;63878.41;5071958;28;20685;-54
2023/12/27 03:42:31;;;;;;;8.20;3.13;;;;;;;8.84;100.00;63867.16;5072833;28;20232;-55
2023/12/27 03:44:57;;;;;;;10.83;3.93;;;;;;;8.91;100.00;63877.84;5072754;28;20193;-54
2023/12/27 03:47:22;;;;;;;12.80;4.40;;;;;;;8.90;100.00;63873.72;5073121;28;20213;-56
2023/12/27 03:49:48;;;;;;;7.73;4.10;;;;;;;8.93;100.00;63871.94;5038020;28;20697;-56
2023/12/27 03:52:13;;;;;;;8.80;3.53;;;;;;;9.08;100.00;63893.38;5072460;28;20232;-54
2023/12/27 03:54:41;;;;;;;6.50;3.43;;;;;;;9.10;100.00;63896.13;5072829;28;20193;-53
2023/12/27 03:57:06;;;;;;;8.03;4.00;;;;;;;9.14;100.00;63897.97;5072597;28;20300;-52
2023/12/27 03:59:32;;;;;;;8.50;3.80;;;;;;;9.20;99.81;63904.53;5072450;28;20754;-52
2023/12/27 04:01:58;;;;;;;5.40;3.30;;;;;;;9.15;100.00;63896.00;5072518;28;20574;-56
2023/12/27 04:04:23;;;;;;;7.23;3.27;;;;;;;9.11;100.00;63894.69;5072347;28;20203;-59
2023/12/27 04:06:49;;;;;;;7.23;3.40;;;;;;;9.09;100.00;63894.47;5072400;28;20205;-52
2023/12/27 04:09:14;;;;;;;5.47;3.47;;;;;;;9.14;100.00;63900.50;5054309;28;20304;-53
2023/12/27 04:11:48;;;;;;;8.83;3.73;;;;;;;9.19;100.00;63905.41;5072278;28;20578;-54
2023/12/27 04:14:17;;;;;;;6.00;4.00;;;;;;;9.12;100.00;63895.78;5072288;28;20658;-53
2023/12/27 04:16:43;;;;;;;10.43;3.43;;;;;;;9.13;100.00;63898.84;5072264;28;20200;-54
2023/12/27 04:19:09;;;;;;;11.97;3.83;;;;;;;9.15;100.00;63901.56;5072168;28;20576;-55
2023/12/27 04:21:34;;;;;;;8.90;5.13;;;;;;;9.05;100.00;63890.13;5072049;28;20193;-54
2023/12/27 04:24:00;;;;;;;9.23;4.83;;;;;;;8.93;100.00;63877.53;5072121;28;20667;-54
2023/12/27 04:26:26;;;;;;;8.30;5.20;;;;;;;8.90;100.00;63871.19;5071987;28;20189;-53
2023/12/27 04:28:51;;;;;;;11.83;6.10;;;;;;;9.00;98.18;63884.63;5054050;28;20659;-53
2023/12/27 04:31:17;;;;;;;12.57;5.93;;;;;;;8.96;97.44;63880.81;5072148;28;20196;-54
2023/12/27 04:33:42;;;;;;;8.13;5.10;;;;;;;8.83;98.97;63866.06;5054271;28;20223;-53
2023/12/27 04:36:08;;;;;;;12.30;5.70;;;;;;;8.79;98.56;63859.72;5071948;28;20193;-53
2023/12/27 04:38:34;;;;;;;10.80;4.20;;;;;;;8.75;100.00;63859.81;5053999;28;20295;-53
2023/12/27 04:41:06;;;;;;;8.03;4.20;;;;;;;8.76;100.00;63858.41;5053871;28;20708;-52
2023/12/27 04:43:31;;;;;;;7.53;3.80;;;;;;;8.79;100.00;63859.16;5072189;28;20721;-52
2023/12/27 04:45:57;;;;;;;8.60;4.13;;;;;;;8.82;100.00;63867.47;5071757;28;20188;-53
2023/12/27 04:48:23;;;;;;;5.93;3.23;;;;;;;8.97;100.00;63881.91;5071556;28;20220;-53
2023/12/27 04:50:49;;;;;;;9.60;3.90;;;;;;;8.99;100.00;63883.53;5053748;28;20219;-53
2023/12/27 04:53:14;;;;;;;7.83;4.13;;;;;;;9.06;100.00;63894.25;5071939;28;20240;-53
2023/12/27 04:55:40;;;;;;;9.60;4.17;;;;;;;9.08;100.00;63890.88;5071698;28;20195;-52
2023/12/27 04:58:05;;;;;;;6.77;2.87;;;;;;;9.12;100.00;63892.72;5071707;28;20345;-53
2023/12/27 05:00:31;;;;;;;6.30;3.20;;;;;;;9.21;100.00;63907.59;5071561;28;20203;-54
2023/12/27 05:02:57;;;;;;;6.87;3.13;;;;;;;9.27;100.00;63914.16;5071408;28;20201;-53
2023/12/27 05:05:22;;;;;;;4.50;3.20;;;;;;;9.24;100.00;63910.88;5071445;28;20667;-54
2023/12/27 05:07:48;;;;;;;9.17;3.20;;;;;;;9.24;100.00;63908.34;5071594;28;20219;-57
2023/12/27 05:10:13;;;;;;;6.00;3.17;;;;;;;9.25;100.00;63909.47;5071418;28;20208;-52
2023/12/27 05:12:39;;;;;;;7.43;3.00;;;;;;;9.31;100.00;63918.53;5071280;28;20710;-52
2023/12/27 05:15:05;;;;;;;6.37;3.07;;;;;;;9.33;100.00;63915.69;5071360;28;20279;-52
2023/12/27 05:17:31;;;;;;;7.67;3.33;;;;;;;9.33;100.00;63918.72;5053341;28;20219;-53
2023/12/27 05:19:56;;;;;;;4.37;3.00;;;;;;;9.36;100.00;63923.97;5071334;28;20185;-53
2023/12/27 05:22:22;;;;;;;4.60;2.90;;;;;;;9.32;100.00;63919.63;5071182;28;20546;-53
2023/12/27 05:24:47;;;;;;;4.90;2.60;;;;;;;9.28;100.00;63915.78;5071250;28;20235;-58
2023/12/27 05:27:13;;;;;;;4.60;2.67;;;;;;;9.23;100.00;63907.28;5071203;28;20728;-54
2023/12/27 05:29:39;;;;;;;6.50;3.40;;;;;;;9.28;100.00;63915.25;5071001;28;20223;-54
2023/12/27 05:32:05;;;;;;;6.77;3.13;;;;;;;9.21;100.00;63905.09;5071215;28;20212;-54
2023/12/27 05:34:31;;;;;;;6.57;3.10;;;;;;;9.18;100.00;63904.31;5070956;28;20192;-53
2023/12/27 05:36:56;;;;;;;9.03;3.27;;;;;;;9.22;100.00;63906.16;5070848;28;20262;-54
2023/12/27 05:39:22;;;;;;;7.73;3.37;;;;;;;9.15;100.00;63898.53;5071330;28;20200;-54
2023/12/27 05:41:47;;;;;;;4.63;2.83;;;;;;;9.23;100.00;63910.31;5070876;28;20580;-54
2023/12/27 05:44:13;;;;;;;3.97;2.80;;;;;;;9.20;100.00;63906.50;5070911;28;20211;-54
2023/12/27 05:46:38;;;;;;;5.50;3.30;;;;;;;9.12;100.00;63892.72;5071038;28;20603;-52
2023/12/27 05:49:05;;;;;;;8.93;3.60;;;;;;;9.22;100.00;63909.22;5036303;28;20251;-52
2023/12/27 05:51:31;;;;;;;5.60;2.97;;;;;;;9.27;100.00;63914.16;5070689;28;20268;-53
2023/12/27 05:53:57;;;;;;;7.83;3.33;;;;;;;9.30;100.00;63917.44;5070868;28;20231;-52
2023/12/27 05:56:22;;;;;;;11.00;4.57;;;;;;;9.25;100.00;63911.97;5070744;28;20188;-52
2023/12/27 05:58:48;;;;;;;8.37;3.73;;;;;;;9.18;100.00;63904.84;5036221;28;20572;-54
2023/12/27 06:01:13;;;;;;;11.03;4.73;;;;;;;9.21;100.00;63905.09;5070337;28;20249;-53
2023/12/27 06:03:39;;;;;;;8.80;4.80;;;;;;;9.15;100.00;63898.53;5052845;28;20292;-52
2023/12/27 06:06:05;;;;;;;8.17;4.00;;;;;;;8.87;100.00;63867.91;5070611;28;20704;-52
2023/12/27 06:08:30;;;;;;;10.27;4.60;;;;;;;8.80;100.00;63860.81;5070405;28;20220;-53
2023/12/27 06:10:56;;;;;;;8.73;4.27;;;;;;;8.82;100.00;63863.00;5070567;28;20189;-52
2023/12/27 06:13:21;;;;;;;14.37;4.33;;;;;;;8.86;100.00;63866.81;5052632;28;20236;-53
2023/12/27 06:15:47;;;;;;;9.73;4.90;;;;;;;9.09;100.00;63894.47;5070307;28;20208;-53
2023/12/27 06:18:13;;;;;;;5.00;3.57;;;;;;;9.09;100.00;63897.00;5070544;28;20193;-55
2023/12/27 06:20:38;;;;;;;10.13;3.63;;;;;;;8.93;100.00;63877.53;5070592;28;20192;-57
2023/12/27 06:23:05;;;;;;;9.00;4.07;;;;;;;8.82;100.00;63864.97;5070756;28;20239;-54
2023/12/27 06:25:31;;;;;;;7.70;3.90;;;;;;;8.87;100.00;63870.41;5052702;28;20192;-51
2023/12/27 06:27:57;;;;;;;10.03;4.00;;;;;;;8.91;100.00;63874.78;5070307;28;20216;-54
2023/12/27 06:30:23;;;;;;;9.60;4.30;;;;;;;8.94;100.00;63878.63;5070490;28;20185;-59
2023/12/27 06:32:48;;;;;;;8.97;3.87;;;;;;;9.03;100.00;63887.94;5052121;28;20212;-55
2023/12/27 06:35:14;;;;;;;12.93;6.13;;;;;;;9.06;100.00;63894.25;5070467;28;20188;-55
2023/12/27 06:37:39;;;;;;;8.13;4.57;;;;;;;9.12;100.00;63895.78;5069746;28;20209;-55
2023/12/27 06:40:05;;;;;;;9.70;4.57;;;;;;;9.11;100.00;63894.69;5070305;28;20227;-53
2023/12/27 06:42:31;;;;;;;9.80;4.20;;;;;;;9.17;100.00;63903.22;5070374;28;20266;-53
2023/12/27 06:44:56;;;;;;;7.97;3.80;;;;;;;9.13;100.00;63899.38;5070195;28;20192;-52
2023/12/27 06:47:22;;;;;;;8.40;4.03;;;;;;;9.18;100.00;63904.31;5052206;28;20303;-54
2023/12/27 06:49:48;;;;;;;9.13;3.53;;;;;;;9.20;100.00;63903.97;5052346;28;20230;-54
2023/12/27 06:52:14;;;;;;;6.63;3.60;;;;;;;9.29;100.00;63916.34;5052065;28;20307;-52
2023/12/27 06:54:39;;;;;;;8.67;4.23;;;;;;;9.33;100.00;63921.25;5069828;28;20284;-52
2023/12/27 06:57:06;;;;;;;5.23;3.40;;;;;;;9.42;100.00;63930.00;5069780;28;20278;-56
2023/12/27 06:59:31;;;;;;;8.73;3.60;;;;;;;9.49;100.00;63938.22;5069932;28;20193;-54
2023/12/27 07:01:56;;;;;;;7.87;3.93;;;;;;;9.55;100.00;63944.78;5069925;28;20209;-54
2023/12/27 07:04:22;;;;;;;5.33;3.30;;;;;;;9.59;100.00;63948.59;5069939;28;20189;-55
2023/12/27 07:06:48;;;;;;;7.83;4.13;;;;;;;9.78;100.00;63969.91;5069873;28;20637;-55
2023/12/27 07:09:16;;;;;;;11.07;6.10;;;;;;;10.08;99.62;64002.16;5069834;28;20231;-55
2023/12/27 07:11:41;;;;;;;17.90;8.30;;;;;;;9.99;93.09;63990.38;5069649;28;20208;-55
2023/12/27 07:14:07;;;;;;;17.67;9.63;;;;;;;9.77;92.53;63968.81;5070985;28;20189;-56
2023/12/27 07:16:33;;;;;;;18.63;9.80;;;;;;;9.78;90.60;63969.91;5080262;22;20228;-55
2023/12/27 07:18:59;;;;;;;14.50;8.50;;;;;;;9.81;89.67;63973.19;5073173;28;20204;-55
2023/12/27 07:21:24;;;;;;;16.17;8.67;;;;;;;9.71;91.63;63962.25;5073391;28;20201;-54
2023/12/27 07:23:50;;;;;;;16.43;8.67;;;;;;;9.76;89.44;63967.72;5073230;28;20196;-56
2023/12/27 07:26:15;;;;;;;12.27;8.33;;;;;;;9.83;89.63;63975.38;5055090;28;20197;-55
2023/12/27 07:28:41;;;;;;;17.50;8.90;;;;;;;9.89;89.40;63981.94;5072810;28;20223;-52
2023/12/27 07:31:08;;;;;;;17.13;8.20;;;;;;;9.96;90.47;63987.09;5055207;28;20201;-53
2023/12/27 07:33:37;;;;;;;13.17;7.73;;;;;;;10.12;88.83;64007.13;5072810;28;20268;-56
2023/12/27 07:36:03;;;;;;;13.63;8.13;;;;;;;10.23;88.99;64018.06;5073116;28;20193;-53
2023/12/27 07:38:29;;;;;;;11.53;7.13;;;;;;;10.50;86.77;64045.09;5073041;28;20208;-54
2023/12/27 07:40:56;;;;;;;15.10;8.70;;;;;;;10.67;84.62;64066.78;5054820;28;20196;-53
2023/12/27 07:43:22;;;;;;;13.83;7.73;;;;;;;10.81;84.35;64081.53;5054815;28;20291;-53
2023/12/27 07:45:48;;;;;;;13.17;8.80;;;;;;;10.79;85.64;64076.84;5072654;28;20283;-53
2023/12/27 07:48:14;;;;;;;17.67;9.37;;;;;;;10.95;83.24;64094.91;5054638;28;20212;-53
2023/12/27 07:50:40;;;;;;;14.67;9.23;;;;;;;11.22;82.23;64126.44;5072713;28;20754;-53
2023/12/27 07:53:06;;;;;;;17.40;9.03;;;;;;;11.32;81.12;64134.31;5072842;28;20291;-53
2023/12/27 07:55:32;;;;;;;19.80;9.33;;;;;;;11.35;81.93;64135.63;5072477;28;20193;-53
2023/12/27 07:57:57;;;;;;;15.40;8.97;;;;;;;11.52;80.72;64159.31;5054620;28;20264;-54
2023/12/27 08:00:23;;;;;;;15.43;8.77;;;;;;;11.85;78.19;64194.41;5054738;28;20279;-56
2023/12/27 08:02:49;;;;;;;18.73;9.37;;;;;;;12.12;77.40;64224.00;5072279;28;20307;-54
2023/12/27 08:05:15;;;;;;;15.07;9.53;;;;;;;12.35;75.74;64246.69;5072521;28;20185;-54
2023/12/27 08:07:42;;;;;;;12.15;7.80;;;;;;;12.47;76.10;64259.84;5072825;28;20201;-55
2023/12/27 08:10:09;;;;;;;12.63;8.07;;;;;;;12.56;75.21;64269.72;5072052;28;20219;-54
2023/12/27 08:12:34;;;;;;;17.07;7.67;;;;;;;12.46;77.03;64259.28;5054446;28;20285;-56
2023/12/27 08:15:00;;;;;;;12.50;7.23;;;;;;;12.64;75.74;64281.56;5072468;28;20189;-54
2023/12/27 08:17:26;;;;;;;11.63;6.07;;;;;;;13.26;73.21;64349.06;5072479;28;20717;-54
2023/12/27 08:19:53;;;;;;;13.38;7.25;;;;;;;13.66;71.03;64389.91;5072031;28;20724;-54
2023/12/27 08:22:19;;;;;;;19.00;7.88;;;;;;;14.13;68.73;64441.53;5072206;28;20287;-54
2023/12/27 08:24:44;;;;;;;10.98;6.68;;;;;;;14.42;66.27;64470.31;5053949;28;20660;-53
2023/12/27 08:27:10;;;;;;;12.87;7.30;;;;;;;14.60;66.03;64492.63;5072143;28;20292;-55
2023/12/27 08:29:36;;;;;;;14.50;6.93;;;;;;;14.22;67.36;64448.84;5071978;28;20204;-57
2023/12/27 08:32:02;;;;;;;11.85;6.78;;;;;;;14.43;66.85;64475.94;5072307;28;20259;-56
2023/12/27 08:34:29;;;;;;;12.20;6.17;;;;;;;13.91;68.43;64417.34;5072068;28;20221;-54
2023/12/27 08:36:55;;;;;;;8.55;4.93;;;;;;;14.32;69.74;64461.31;5071820;28;20259;-58
2023/12/27 08:39:21;;;;;;;9.07;4.57;;;;;;;14.85;66.21;64517.00;5072174;28;20188;-54
2023/12/27 08:41:46;;;;;;;10.13;5.82;;;;;;;15.38;64.00;64574.72;5072125;28;20232;-56
2023/12/27 08:44:12;;;;;;;10.50;7.25;;;;;;;15.74;73.93;64616.88;5072074;28;20203;-55
2023/12/27 08:46:39;;;;;;;9.68;5.70;;;;;;;16.31;67.65;64676.53;5071882;28;20208;-58
2023/12/27 08:49:05;;;;;;;10.52;5.13;;;;;;;16.54;75.43;64704.94;5054103;28;20209;-56
2023/12/27 08:51:30;;;;;;;9.55;4.93;;;;;;;14.88;68.44;64520.88;5053963;28;20226;-56
2023/12/27 08:53:56;;;;;;;8.95;4.55;;;;;;;15.17;71.62;64551.66;5053730;28;20197;-56
2023/12/27 08:56:24;;;;;;;9.13;4.25;;;;;;;15.08;68.51;64542.84;5071779;28;20197;-58
2023/12/27 08:58:50;;;;;;;12.75;4.90;;;;;;;14.59;68.59;64488.44;5053826;28;20246;-58
2023/12/27 09:01:16;;;;;;;10.50;4.45;;;;;;;15.02;68.53;64538.25;5071801;28;20189;-59
2023/12/27 09:03:42;;;;;;;10.82;4.88;;;;;;;15.26;70.39;64561.53;5071513;28;20213;-57
2023/12/27 09:06:08;;;;;;;11.98;5.20;;;;;;;14.69;68.01;64499.97;5071200;28;20288;-58
2023/12/27 09:08:37;;;;;;;6.15;4.00;;;;;;;14.90;70.93;64523.06;5071242;28;20239;-57
2023/12/27 09:11:06;;;;;;;9.77;4.40;;;;;;;15.57;68.77;64595.66;5053425;28;20192;-58
2023/12/27 09:13:32;;;;;;;10.02;5.07;;;;;;;14.96;68.96;64534.75;5071469;28;20209;-56
2023/12/27 09:15:57;;;;;;;6.72;3.97;;;;;;;14.74;70.09;64508.03;5071426;28;20223;-58
2023/12/27 09:18:23;;;;;;;7.07;4.25;;;;;;;13.58;70.35;64380.56;5053448;28;20215;-56
2023/12/27 09:20:48;;;;;;;9.02;4.38;;;;;;;13.42;72.01;64361.56;5071188;28;20216;-55
2023/12/27 09:23:14;;;;;;;7.30;3.88;;;;;;;13.28;72.35;64348.75;5071394;28;20204;-58
2023/12/27 09:25:40;;;;;;;8.73;4.40;;;;;;;13.62;83.08;64385.50;5071330;28;20654;-56
2023/12/27 09:28:05;;;;;;;7.88;3.95;;;;;;;14.87;73.89;64522.28;5053103;28;20208;-56
2023/12/27 09:30:31;;;;;;;9.68;3.95;;;;;;;16.04;73.27;64649.38;5071077;28;20192;-56
2023/12/27 09:32:57;;;;;;;7.75;3.72;;;;;;;14.92;67.48;64527.81;5070974;28;20208;-57
2023/12/27 09:35:22;;;;;;;8.02;3.53;;;;;;;15.04;67.49;64541.00;5070966;28;20298;-58
2023/12/27 09:37:48;;;;;;;5.40;3.42;;;;;;;14.68;68.07;64501.44;5070537;28;20263;-58
2023/12/27 09:40:14;;;;;;;8.35;3.60;;;;;;;14.42;69.95;64472.84;5070911;28;20189;-57
2023/12/27 09:42:40;;;;;;;6.65;3.55;;;;;;;14.01;71.36;64425.81;5071301;28;20292;-57
2023/12/27 09:45:09;;;;;;;8.70;7.18;;;;;;;14.37;71.68;64464.81;5070133;28;20197;-58
2023/12/27 09:47:37;;;;;;;5.53;2.88;;;;;;;13.70;71.98;64393.72;5070382;28;20213;-57
2023/12/27 09:50:06;;;;;;;9.80;3.60;;;;;;;13.94;72.43;64418.09;5070679;28;20220;-57
2023/12/27 09:52:33;;;;;;;7.03;3.47;;;;;;;13.51;72.98;64373.44;5070876;28;20235;-59
2023/12/27 09:54:59;;;;;;;6.53;3.08;;;;;;;13.39;73.87;64363.31;5051855;28;20207;-56
2023/12/27 09:57:25;;;;;;;6.20;3.38;;;;;;;13.32;73.99;64352.56;5070642;28;20209;-58
2023/12/27 09:59:53;;;;;;;4.72;3.40;;;;;;;13.69;74.91;64390.66;5070624;28;20238;-57
2023/12/27 10:02:19;;;;;;;7.95;3.25;;;;;;;13.94;71.50;64415.03;5070646;28;20706;-57
2023/12/27 10:05:12;;;;;;;10.65;3.75;;;;;;;14.03;70.29;64427.44;5052766;28;20188;-57
2023/12/27 10:07:39;;;;;;;7.25;3.67;;;;;;;14.79;68.42;64510.97;5070128;28;20250;-57
2023/12/27 10:10:07;;;;;;;3.97;3.38;;;;;;;14.83;68.16;64520.44;5069617;28;20240;-57
2023/12/27 10:12:33;;;;;;;5.80;3.35;;;;;;;15.21;66.69;64556.59;5070774;28;20197;-56
2023/12/27 10:14:59;;;;;;;12.70;2.83;;;;;;;15.54;65.17;64592.34;5069986;28;20211;-55
2023/12/27 10:17:24;;;;;;;4.25;2.40;;;;;;;15.39;63.23;64576.38;5052154;28;20269;-56
2023/12/27 10:19:50;;;;;;;6.55;2.85;;;;;;;14.62;63.45;64494.28;5052540;28;20673;-56
2023/12/27 10:22:15;;;;;;;3.40;2.38;;;;;;;14.98;64.56;64531.88;5071006;28;20212;-55
2023/12/27 10:24:42;;;;;;;5.45;2.50;;;;;;;14.63;63.87;64495.91;5070073;28;20214;-56
2023/12/27 10:27:09;;;;;;;4.95;2.78;;;;;;;14.91;65.08;64523.59;5070503;28;20232;-58
2023/12/27 10:29:36;;;;;;;4.55;2.65;;;;;;;15.12;64.43;64546.69;5070189;28;20250;-57
2023/12/27 10:32:03;;;;;;;6.38;2.60;;;;;;;14.63;64.08;64495.38;5052586;28;20208;-58
2023/12/27 10:34:29;;;;;;;4.70;2.55;;;;;;;14.56;64.14;64485.16;5070215;28;20218;-57
2023/12/27 10:36:56;;;;;;;4.72;2.63;;;;;;;14.26;65.58;64455.78;5070292;28;20223;-61
2023/12/27 10:39:23;;;;;;;5.85;2.47;;;;;;;14.89;64.67;64523.94;5070059;28;20196;-59
2023/12/27 10:41:51;;;;;;;7.95;3.03;;;;;;;14.47;64.80;64480.88;5069843;28;20301;-56
2023/12/27 10:44:18;;;;;;;6.05;3.35;;;;;;;14.28;65.35;64454.94;5070152;28;20197;-56
2023/12/27 10:46:44;;;;;;;4.28;2.97;;;;;;;14.23;65.95;64451.94;5069566;28;20225;-59
2023/12/27 10:49:11;;;;;;;4.75;2.67;;;;;;;14.79;64.07;64513.50;5054588;28;20408;-56
2023/12/27 10:51:40;;;;;;;5.88;3.95;;;;;;;15.14;63.98;64552.00;5073727;28;20201;-57
2023/12/27 10:54:05;;;;;;;8.05;4.78;;;;;;;15.50;62.49;64591.03;5073574;28;20192;-57
2023/12/27 10:56:38;;;;;;;8.02;3.28;;;;;;;15.39;61.71;64576.38;5073487;28;20235;-55
2023/12/27 10:59:08;;;;;;;3.78;2.58;;;;;;;14.93;64.07;64526.34;5073473;28;20196;-56
2023/12/27 11:01:37;;;;;;;5.97;3.60;;;;;;;15.13;62.62;64550.88;5073676;28;20220;-55
2023/12/27 11:04:09;;;;;;;7.25;3.72;;;;;;;15.50;62.56;64590.50;5073535;28;20278;-55
2023/12/27 11:06:39;;;;;;;5.38;2.92;;;;;;;15.72;60.00;64612.16;5073620;28;20189;-56
2023/12/27 11:09:09;;;;;;;6.05;2.65;;;;;;;15.61;58.96;64600.06;5073174;28;20266;-58
2023/12/27 11:11:38;;;;;;;6.03;3.38;;;;;;;15.25;61.87;64563.53;5073631;28;20266;-56
2023/12/27 11:14:11;;;;;;;9.30;3.40;;;;;;;14.47;63.18;64478.34;5073454;28;20188;-56
2023/12/27 11:16:47;;;;;;;6.18;3.20;;;;;;;15.16;62.73;64551.09;5055658;28;20258;-56
2023/12/27 11:19:13;;;;;;;4.38;2.60;;;;;;;15.13;62.04;64547.78;5073551;28;20666;-56
2023/12/27 11:21:40;;;;;;;3.60;2.42;;;;;;;15.49;60.82;64587.41;5055481;28;20242;-55
2023/12/27 11:24:06;;;;;;;8.20;3.15;;;;;;;14.78;61.76;64512.41;5073337;28;20276;-56
2023/12/27 11:26:36;;;;;;;5.45;3.13;;;;;;;14.67;62.48;64497.78;5072842;28;20639;-56